createdAt,value
2019-05-16T00:00:11.829Z,0.00
2019-05-16T00:01:11.827Z,0.00
2019-05-16T00:02:11.823Z,0.00
2019-05-16T00:03:11.805Z,0.00
2019-05-16T00:04:11.809Z,0.00
2019-05-16T00:05:11.806Z,0.00
2019-05-16T00:06:11.785Z,0.00
2019-05-16T00:07:11.784Z,0.00
2019-05-16T00:08:12.853Z,0.00
2019-05-16T00:09:11.776Z,0.00
2019-05-16T00:10:11.775Z,0.00
2019-05-16T00:11:11.773Z,0.00
2019-05-16T00:12:11.782Z,0.00
2019-05-16T00:13:11.779Z,0.00
2019-05-16T00:14:11.779Z,0.00
2019-05-16T00:15:11.845Z,0.00
2019-05-16T00:16:11.755Z,0.00
2019-05-16T00:17:11.752Z,0.00
2019-05-16T00:18:11.732Z,0.00
2019-05-16T00:19:11.734Z,0.00
2019-05-16T00:20:11.723Z,0.00
2019-05-16T00:21:11.728Z,0.00
2019-05-16T00:22:11.702Z,0.00
2019-05-16T00:23:11.694Z,0.00
2019-05-16T00:24:11.682Z,0.00
2019-05-16T00:25:11.684Z,0.00
2019-05-16T00:26:11.693Z,0.00
2019-05-16T00:27:11.673Z,0.00
2019-05-16T00:28:11.653Z,0.00
2019-05-16T00:29:11.648Z,0.00
2019-05-16T00:30:11.644Z,0.00
2019-05-16T00:31:11.644Z,0.00
2019-05-16T00:32:11.629Z,0.00
2019-05-16T00:33:11.622Z,0.00
2019-05-16T00:34:11.631Z,0.00
2019-05-16T00:35:11.621Z,0.00
2019-05-16T00:36:11.612Z,0.00
2019-05-16T00:37:11.696Z,0.00
2019-05-16T00:38:11.619Z,0.00
2019-05-16T00:39:11.601Z,0.00
2019-05-16T00:40:11.592Z,0.00
2019-05-16T00:41:11.594Z,0.00
2019-05-16T00:42:11.581Z,0.00
2019-05-16T00:43:11.583Z,0.00
2019-05-16T00:44:11.567Z,0.00
2019-05-16T00:45:13.365Z,0.00
2019-05-16T00:46:11.549Z,0.00
2019-05-16T00:47:11.543Z,0.00
2019-05-16T00:48:11.549Z,0.00
2019-05-16T00:49:11.529Z,0.00
2019-05-16T00:50:11.517Z,0.00
2019-05-16T00:51:11.514Z,0.00
2019-05-16T00:52:11.505Z,0.00
2019-05-16T00:53:11.495Z,0.00
2019-05-16T00:54:11.504Z,0.00
2019-05-16T00:55:11.482Z,0.00
2019-05-16T00:56:11.479Z,0.00
2019-05-16T00:57:11.475Z,0.00
2019-05-16T00:58:11.469Z,0.00
2019-05-16T00:59:11.473Z,0.00
2019-05-16T01:00:11.441Z,0.00
2019-05-16T01:01:11.434Z,0.00
2019-05-16T01:02:11.427Z,0.00
2019-05-16T01:03:11.423Z,0.00
2019-05-16T01:04:11.413Z,0.00
2019-05-16T01:05:14.298Z,0.00
2019-05-16T01:06:19.168Z,0.00
2019-05-16T01:07:12.392Z,0.00
2019-05-16T01:08:11.384Z,0.00
2019-05-16T01:09:11.384Z,0.00
2019-05-16T01:10:11.468Z,0.00
2019-05-16T01:11:11.379Z,0.00
2019-05-16T01:12:11.391Z,0.00
2019-05-16T01:13:11.363Z,0.00
2019-05-16T01:14:11.371Z,0.00
2019-05-16T01:15:11.347Z,0.00
2019-05-16T01:16:11.354Z,0.00
2019-05-16T01:17:11.359Z,0.00
2019-05-16T01:18:11.331Z,0.00
2019-05-16T01:19:11.321Z,0.00
2019-05-16T01:20:11.343Z,0.00
2019-05-16T01:21:11.334Z,0.00
2019-05-16T01:22:11.301Z,0.00
2019-05-16T01:23:11.296Z,0.00
2019-05-16T01:24:11.296Z,0.00
2019-05-16T01:25:11.294Z,0.00
2019-05-16T01:26:11.288Z,0.00
2019-05-16T01:27:11.275Z,0.00
2019-05-16T01:28:11.266Z,0.00
2019-05-16T01:29:11.823Z,0.00
2019-05-16T01:30:11.254Z,0.00
2019-05-16T01:31:11.249Z,0.00
2019-05-16T01:32:11.247Z,0.00
2019-05-16T01:33:11.248Z,0.00
2019-05-16T01:34:11.222Z,0.00
2019-05-16T01:35:11.209Z,0.00
2019-05-16T01:36:11.203Z,0.00
2019-05-16T01:37:11.210Z,0.00
2019-05-16T01:38:11.207Z,0.00
2019-05-16T01:39:11.209Z,0.00
2019-05-16T01:40:11.196Z,0.00
2019-05-16T01:41:11.191Z,0.00
2019-05-16T01:42:11.179Z,0.00
2019-05-16T01:43:11.201Z,0.00
2019-05-16T01:44:11.176Z,0.00
2019-05-16T01:45:11.162Z,0.00
2019-05-16T01:46:11.150Z,0.00
2019-05-16T01:47:11.138Z,0.00
2019-05-16T01:48:11.162Z,0.00
2019-05-16T01:49:11.148Z,0.00
2019-05-16T01:50:11.146Z,0.00
2019-05-16T01:51:11.129Z,0.00
2019-05-16T01:52:11.124Z,0.00
2019-05-16T01:53:11.107Z,0.00
2019-05-16T01:54:11.119Z,0.00
2019-05-16T01:55:11.115Z,0.00
2019-05-16T01:56:11.106Z,0.00
2019-05-16T01:57:11.096Z,0.00
2019-05-16T01:58:11.088Z,0.00
2019-05-16T01:59:11.166Z,0.00
2019-05-16T02:00:11.105Z,0.00
2019-05-16T02:01:15.057Z,0.00
2019-05-16T02:02:11.058Z,0.00
2019-05-16T02:03:11.071Z,0.00
2019-05-16T02:04:12.214Z,0.00
2019-05-16T02:05:11.068Z,0.00
2019-05-16T02:06:11.052Z,0.00
2019-05-16T02:07:11.039Z,0.00
2019-05-16T02:08:11.025Z,0.00
2019-05-16T02:09:11.612Z,0.00
2019-05-16T02:10:11.038Z,0.00
2019-05-16T02:11:11.027Z,0.00
2019-05-16T02:12:11.030Z,0.00
2019-05-16T02:13:11.026Z,0.00
2019-05-16T02:14:11.004Z,0.00
2019-05-16T02:15:10.993Z,0.00
2019-05-16T02:16:10.998Z,0.00
2019-05-16T02:17:11.209Z,0.00
2019-05-16T02:18:10.985Z,0.00
2019-05-16T02:19:10.965Z,0.00
2019-05-16T02:20:10.970Z,0.00
2019-05-16T02:21:10.976Z,0.00
2019-05-16T02:22:10.939Z,0.00
2019-05-16T02:23:10.934Z,0.00
2019-05-16T02:24:10.929Z,0.00
2019-05-16T02:25:10.922Z,0.00
2019-05-16T02:26:10.928Z,0.00
2019-05-16T02:27:10.908Z,0.00
2019-05-16T02:28:10.888Z,0.00
2019-05-16T02:29:13.709Z,0.00
2019-05-16T02:30:12.359Z,0.00
2019-05-16T02:31:14.789Z,0.00
2019-05-16T02:32:11.659Z,0.00
2019-05-16T02:33:11.631Z,0.00
2019-05-16T02:34:11.862Z,0.00
2019-05-16T02:35:11.981Z,0.00
2019-05-16T02:36:11.157Z,0.00
2019-05-16T02:37:23.774Z,0.00
2019-05-16T02:38:11.863Z,0.00
2019-05-16T02:39:11.405Z,0.00
2019-05-16T02:40:11.971Z,0.00
2019-05-16T02:41:10.842Z,0.00
2019-05-16T02:42:11.926Z,0.00
2019-05-16T02:43:12.440Z,0.00
2019-05-16T02:44:12.146Z,0.00
2019-05-16T02:45:11.213Z,0.00
2019-05-16T02:46:11.962Z,0.00
2019-05-16T02:47:11.107Z,0.00
2019-05-16T02:48:11.164Z,0.00
2019-05-16T02:49:11.569Z,0.00
2019-05-16T02:50:12.155Z,0.00
2019-05-16T02:51:11.201Z,0.00
2019-05-16T02:52:11.065Z,0.00
2019-05-16T02:53:12.755Z,0.00
2019-05-16T02:54:11.244Z,0.00
2019-05-16T02:55:11.683Z,0.00
2019-05-16T02:56:12.183Z,0.00
2019-05-16T02:57:11.417Z,0.00
2019-05-16T02:58:11.433Z,0.00
2019-05-16T02:59:11.961Z,0.00
2019-05-16T03:00:12.058Z,0.00
2019-05-16T03:01:11.052Z,0.00
2019-05-16T03:02:11.571Z,0.00
2019-05-16T03:03:11.987Z,0.00
2019-05-16T03:04:11.213Z,0.00
2019-05-16T03:05:12.111Z,0.00
2019-05-16T03:06:11.267Z,0.00
2019-05-16T03:07:13.436Z,0.00
2019-05-16T03:08:12.204Z,0.00
2019-05-16T03:09:11.456Z,0.00
2019-05-16T03:10:11.209Z,0.00
2019-05-16T03:11:11.893Z,0.00
2019-05-16T03:12:10.857Z,0.00
2019-05-16T03:13:11.338Z,0.00
2019-05-16T03:14:11.309Z,0.00
2019-05-16T03:15:11.053Z,0.00
2019-05-16T03:16:11.753Z,0.00
2019-05-16T03:17:11.386Z,0.00
2019-05-16T03:18:11.591Z,0.00
2019-05-16T03:19:11.301Z,0.00
2019-05-16T03:20:11.020Z,0.00
2019-05-16T03:21:11.237Z,0.00
2019-05-16T03:22:11.703Z,0.00
2019-05-16T03:23:11.501Z,0.00
2019-05-16T03:24:11.388Z,0.00
2019-05-16T03:25:11.514Z,0.00
2019-05-16T03:26:11.710Z,0.00
2019-05-16T03:27:10.964Z,0.00
2019-05-16T03:28:11.257Z,0.00
2019-05-16T03:29:11.282Z,0.00
2019-05-16T03:30:15.423Z,0.00
2019-05-16T03:31:15.238Z,0.00
2019-05-16T03:32:13.902Z,0.00
2019-05-16T03:33:18.920Z,0.00
2019-05-16T03:34:16.303Z,0.00
2019-05-16T03:35:15.536Z,0.00
2019-05-16T03:36:14.522Z,0.00
2019-05-16T03:37:14.252Z,0.00
2019-05-16T03:38:12.170Z,0.00
2019-05-16T03:39:10.842Z,0.00
2019-05-16T03:40:11.106Z,0.00
2019-05-16T03:41:11.444Z,0.00
2019-05-16T03:42:12.729Z,0.00
2019-05-16T03:43:11.530Z,0.00
2019-05-16T03:44:11.322Z,0.00
2019-05-16T03:45:10.935Z,0.00
2019-05-16T03:46:11.756Z,0.00
2019-05-16T03:47:11.191Z,0.00
2019-05-16T03:48:12.059Z,0.00
2019-05-16T03:49:11.372Z,0.00
2019-05-16T03:50:11.292Z,0.00
2019-05-16T03:51:11.392Z,0.00
2019-05-16T03:52:11.371Z,0.00
2019-05-16T03:53:11.599Z,0.00
2019-05-16T03:54:12.373Z,0.00
2019-05-16T03:55:11.341Z,0.00
2019-05-16T03:56:11.091Z,0.00
2019-05-16T03:57:11.546Z,0.00
2019-05-16T03:58:11.713Z,0.00
2019-05-16T03:59:10.948Z,0.00
2019-05-16T04:00:11.692Z,0.00
2019-05-16T04:01:11.433Z,0.00
2019-05-16T04:02:10.973Z,0.00
2019-05-16T04:03:11.667Z,0.00
2019-05-16T04:04:11.785Z,0.00
2019-05-16T04:05:11.118Z,0.00
2019-05-16T04:06:11.860Z,0.00
2019-05-16T04:07:10.965Z,0.00
2019-05-16T04:08:18.967Z,0.00
2019-05-16T04:09:12.433Z,0.00
2019-05-16T04:10:10.965Z,0.00
2019-05-16T04:11:11.694Z,0.00
2019-05-16T04:12:10.917Z,0.00
2019-05-16T04:13:11.447Z,0.00
2019-05-16T04:14:10.908Z,0.00
2019-05-16T04:15:11.339Z,0.00
2019-05-16T04:16:11.917Z,0.00
2019-05-16T04:17:11.024Z,0.00
2019-05-16T04:18:11.124Z,0.00
2019-05-16T04:19:11.468Z,0.00
2019-05-16T04:20:11.692Z,0.00
2019-05-16T04:21:11.795Z,0.00
2019-05-16T04:22:10.566Z,0.00
2019-05-16T04:23:11.193Z,0.00
2019-05-16T04:24:12.132Z,0.00
2019-05-16T04:25:11.193Z,0.00
2019-05-16T04:26:11.367Z,0.00
2019-05-16T04:27:11.996Z,0.00
2019-05-16T04:28:11.514Z,0.00
2019-05-16T04:29:11.902Z,0.00
2019-05-16T04:30:11.603Z,0.00
2019-05-16T04:31:10.969Z,0.00
2019-05-16T04:32:11.019Z,0.00
2019-05-16T04:33:10.946Z,0.00
2019-05-16T04:34:11.668Z,0.00
2019-05-16T04:35:11.156Z,0.00
2019-05-16T04:36:10.946Z,0.00
2019-05-16T04:37:11.449Z,0.00
2019-05-16T04:38:13.052Z,0.00
2019-05-16T04:39:12.086Z,0.00
2019-05-16T04:40:11.974Z,0.00
2019-05-16T04:41:11.495Z,0.00
2019-05-16T04:42:10.992Z,0.00
2019-05-16T04:43:11.423Z,0.00
2019-05-16T04:44:11.757Z,0.00
2019-05-16T04:45:11.884Z,0.00
2019-05-16T04:46:11.696Z,0.00
2019-05-16T04:47:11.013Z,0.00
2019-05-16T04:48:11.277Z,0.00
2019-05-16T04:49:11.186Z,0.00
2019-05-16T04:50:11.757Z,0.00
2019-05-16T04:51:10.607Z,0.00
2019-05-16T04:52:11.309Z,0.00
2019-05-16T04:53:11.503Z,0.00
2019-05-16T04:54:11.447Z,0.00
2019-05-16T04:55:11.779Z,0.00
2019-05-16T04:56:11.044Z,0.00
2019-05-16T04:57:11.855Z,0.00
2019-05-16T04:58:10.622Z,0.00
2019-05-16T04:59:16.262Z,0.00
2019-05-16T05:00:11.507Z,0.00
2019-05-16T05:01:11.105Z,0.00
2019-05-16T05:02:12.296Z,0.00
2019-05-16T05:03:11.916Z,0.00
2019-05-16T05:04:14.810Z,0.00
2019-05-16T05:05:12.642Z,0.00
2019-05-16T05:06:11.278Z,0.00
2019-05-16T05:07:11.209Z,0.00
2019-05-16T05:08:10.860Z,0.00
2019-05-16T05:09:11.772Z,0.00
2019-05-16T05:10:11.230Z,0.00
2019-05-16T05:11:10.687Z,0.00
2019-05-16T05:12:11.444Z,0.00
2019-05-16T05:13:10.965Z,0.00
2019-05-16T05:14:10.460Z,0.00
2019-05-16T05:15:11.199Z,0.00
2019-05-16T05:16:10.699Z,0.00
2019-05-16T05:17:10.675Z,0.00
2019-05-16T05:18:10.225Z,0.00
2019-05-16T05:19:10.903Z,0.00
2019-05-16T05:20:10.621Z,0.00
2019-05-16T05:21:11.622Z,0.00
2019-05-16T05:22:10.445Z,0.00
2019-05-16T05:23:09.955Z,0.00
2019-05-16T05:24:10.853Z,0.00
2019-05-16T05:25:10.905Z,0.00
2019-05-16T05:26:10.750Z,0.00
2019-05-16T05:27:10.525Z,0.00
2019-05-16T05:28:10.122Z,0.00
2019-05-16T05:29:10.322Z,0.00
2019-05-16T05:30:10.490Z,0.00
2019-05-16T05:31:10.816Z,0.00
2019-05-16T05:32:14.285Z,0.00
2019-05-16T05:33:10.171Z,0.00
2019-05-16T05:34:10.626Z,0.00
2019-05-16T05:35:10.536Z,0.00
2019-05-16T05:36:12.330Z,0.00
2019-05-16T05:37:12.559Z,0.00
2019-05-16T05:38:10.515Z,0.00
2019-05-16T05:39:15.215Z,0.00
2019-05-16T05:40:10.940Z,0.00
2019-05-16T05:41:10.742Z,0.00
2019-05-16T05:42:10.499Z,0.00
2019-05-16T05:43:10.580Z,0.00
2019-05-16T05:44:10.643Z,0.00
2019-05-16T05:45:11.127Z,0.00
2019-05-16T05:46:11.147Z,0.00
2019-05-16T05:47:10.783Z,0.00
2019-05-16T05:48:10.681Z,0.00
2019-05-16T05:49:10.422Z,5.62
2019-05-16T05:50:11.266Z,5.62
2019-05-16T05:51:11.341Z,5.62
2019-05-16T05:52:11.854Z,5.62
2019-05-16T05:53:10.209Z,5.62
2019-05-16T05:54:10.907Z,5.62
2019-05-16T05:55:10.551Z,5.62
2019-05-16T05:56:11.319Z,5.62
2019-05-16T05:57:09.969Z,5.62
2019-05-16T05:58:10.051Z,5.62
2019-05-16T05:59:11.343Z,11.25
2019-05-16T06:00:10.008Z,11.25
2019-05-16T06:01:11.091Z,11.25
2019-05-16T06:02:11.332Z,11.25
2019-05-16T06:03:10.723Z,11.25
2019-05-16T06:04:10.558Z,16.88
2019-05-16T06:05:10.678Z,16.88
2019-05-16T06:06:10.610Z,11.25
2019-05-16T06:07:10.158Z,11.25
2019-05-16T06:08:10.660Z,11.25
2019-05-16T06:09:14.326Z,11.25
2019-05-16T06:10:10.826Z,11.25
2019-05-16T06:11:10.037Z,5.62
2019-05-16T06:12:10.575Z,5.62
2019-05-16T06:13:11.056Z,5.62
2019-05-16T06:14:09.816Z,5.62
2019-05-16T06:15:12.648Z,5.62
2019-05-16T06:16:10.876Z,5.62
2019-05-16T06:17:11.519Z,5.62
2019-05-16T06:18:10.835Z,5.62
2019-05-16T06:19:11.002Z,5.62
2019-05-16T06:20:14.506Z,5.62
2019-05-16T06:21:11.491Z,5.62
2019-05-16T06:22:10.199Z,5.62
2019-05-16T06:23:10.566Z,5.62
2019-05-16T06:24:10.773Z,5.62
2019-05-16T06:25:13.459Z,5.62
2019-05-16T06:26:12.262Z,5.62
2019-05-16T06:27:09.811Z,5.62
2019-05-16T06:28:10.598Z,5.62
2019-05-16T06:29:10.440Z,5.62
2019-05-16T06:30:11.429Z,5.62
2019-05-16T06:31:14.195Z,5.62
2019-05-16T06:32:10.424Z,5.62
2019-05-16T06:33:10.249Z,5.62
2019-05-16T06:34:15.131Z,5.62
2019-05-16T06:35:10.302Z,5.62
2019-05-16T06:36:11.022Z,5.62
2019-05-16T06:37:09.838Z,5.62
2019-05-16T06:38:10.022Z,5.62
2019-05-16T06:39:11.449Z,5.62
2019-05-16T06:40:10.969Z,5.62
2019-05-16T06:41:10.669Z,5.62
2019-05-16T06:42:09.881Z,5.62
2019-05-16T06:43:10.899Z,5.62
2019-05-16T06:44:10.685Z,5.62
2019-05-16T06:45:10.305Z,5.62
2019-05-16T06:46:11.078Z,5.62
2019-05-16T06:47:16.886Z,5.62
2019-05-16T06:48:10.235Z,5.62
2019-05-16T06:49:10.371Z,5.62
2019-05-16T06:50:11.329Z,5.62
2019-05-16T06:51:10.760Z,5.62
2019-05-16T06:52:10.430Z,5.62
2019-05-16T06:53:10.429Z,5.62
2019-05-16T06:54:10.124Z,5.62
2019-05-16T06:55:10.071Z,5.62
2019-05-16T06:56:10.523Z,5.62
2019-05-16T06:57:10.575Z,5.62
2019-05-16T06:58:10.596Z,5.62
2019-05-16T06:59:10.412Z,5.62
2019-05-16T07:00:11.005Z,5.62
2019-05-16T07:01:10.272Z,5.62
2019-05-16T07:02:12.274Z,5.62
2019-05-16T07:03:12.464Z,5.62
2019-05-16T07:04:10.469Z,5.62
2019-05-16T07:05:10.034Z,5.62
2019-05-16T07:06:11.006Z,5.62
2019-05-16T07:07:12.675Z,5.62
2019-05-16T07:08:10.435Z,5.62
2019-05-16T07:09:10.517Z,5.62
2019-05-16T07:10:09.808Z,5.62
2019-05-16T07:11:10.567Z,5.62
2019-05-16T07:12:10.455Z,5.62
2019-05-16T07:13:10.389Z,5.62
2019-05-16T07:14:10.553Z,5.62
2019-05-16T07:15:12.279Z,11.25
2019-05-16T07:16:09.733Z,11.25
2019-05-16T07:17:09.732Z,11.25
2019-05-16T07:18:12.962Z,11.25
2019-05-16T07:19:10.424Z,11.25
2019-05-16T07:20:10.385Z,11.25
2019-05-16T07:21:10.903Z,11.25
2019-05-16T07:22:11.119Z,16.88
2019-05-16T07:23:10.064Z,16.88
2019-05-16T07:24:10.954Z,16.88
2019-05-16T07:25:10.601Z,16.88
2019-05-16T07:26:09.850Z,16.88
2019-05-16T07:27:12.203Z,16.88
2019-05-16T07:28:10.206Z,16.88
2019-05-16T07:29:11.050Z,16.88
2019-05-16T07:30:10.665Z,16.88
2019-05-16T07:31:15.650Z,22.50
2019-05-16T07:32:12.485Z,22.50
2019-05-16T07:33:09.842Z,22.50
2019-05-16T07:34:10.797Z,22.50
2019-05-16T07:35:09.757Z,22.50
2019-05-16T07:36:09.907Z,28.12
2019-05-16T07:37:10.827Z,33.75
2019-05-16T07:38:10.750Z,39.38
2019-05-16T07:39:10.798Z,39.38
2019-05-16T07:40:19.094Z,50.62
2019-05-16T07:41:12.770Z,61.88
2019-05-16T07:42:11.063Z,45.00
2019-05-16T07:43:10.753Z,56.25
2019-05-16T07:44:10.797Z,45.00
2019-05-16T07:45:10.604Z,45.00
2019-05-16T07:46:11.135Z,45.00
2019-05-16T07:47:11.225Z,33.75
2019-05-16T07:48:10.721Z,39.38
2019-05-16T07:49:11.458Z,28.12
2019-05-16T07:50:10.452Z,28.12
2019-05-16T07:51:10.376Z,39.38
2019-05-16T07:52:09.902Z,50.62
2019-05-16T07:53:10.601Z,33.75
2019-05-16T07:54:10.529Z,28.12
2019-05-16T07:55:10.873Z,28.12
2019-05-16T07:56:10.530Z,28.12
2019-05-16T07:57:18.890Z,39.38
2019-05-16T07:58:10.279Z,28.12
2019-05-16T07:59:10.328Z,28.12
2019-05-16T08:00:09.660Z,39.38
2019-05-16T08:01:12.541Z,28.12
2019-05-16T08:02:10.803Z,45.00
2019-05-16T08:03:10.501Z,50.62
2019-05-16T08:04:10.555Z,45.00
2019-05-16T08:05:10.356Z,33.75
2019-05-16T08:06:10.973Z,45.00
2019-05-16T08:07:10.791Z,56.25
2019-05-16T08:08:10.554Z,50.62
2019-05-16T08:09:12.042Z,67.50
2019-05-16T08:10:10.578Z,56.25
2019-05-16T08:11:11.764Z,61.88
2019-05-16T08:12:10.525Z,50.62
2019-05-16T08:13:12.232Z,67.50
2019-05-16T08:14:10.205Z,61.88
2019-05-16T08:15:10.176Z,50.62
2019-05-16T08:16:10.195Z,56.25
2019-05-16T08:17:10.421Z,45.00
2019-05-16T08:18:11.037Z,67.50
2019-05-16T08:19:10.341Z,61.88
2019-05-16T08:20:10.941Z,61.88
2019-05-16T08:21:11.410Z,61.88
2019-05-16T08:22:10.822Z,61.88
2019-05-16T08:23:11.130Z,61.88
2019-05-16T08:24:14.551Z,61.88
2019-05-16T08:25:10.649Z,61.88
2019-05-16T08:26:10.262Z,61.88
2019-05-16T08:27:11.456Z,61.88
2019-05-16T08:28:11.496Z,56.25
2019-05-16T08:29:08.575Z,56.25
2019-05-16T08:30:11.066Z,56.25
2019-05-16T08:31:11.736Z,50.62
2019-05-16T08:32:11.437Z,50.62
2019-05-16T08:33:13.232Z,50.62
2019-05-16T08:34:12.191Z,50.62
2019-05-16T08:35:11.210Z,45.00
2019-05-16T08:36:11.798Z,50.62
2019-05-16T08:37:32.930Z,50.62
2019-05-16T08:38:13.315Z,50.62
2019-05-16T08:39:11.092Z,50.62
2019-05-16T08:40:11.549Z,45.00
2019-05-16T08:41:14.461Z,50.62
2019-05-16T08:42:13.094Z,50.62
2019-05-16T08:43:11.565Z,50.62
2019-05-16T08:44:12.211Z,45.00
2019-05-16T08:45:11.996Z,45.00
2019-05-16T08:46:11.305Z,45.00
2019-05-16T08:47:11.772Z,45.00
2019-05-16T08:48:11.314Z,45.00
2019-05-16T08:49:12.006Z,39.38
2019-05-16T08:50:13.664Z,39.38
2019-05-16T08:51:12.166Z,39.38
2019-05-16T08:52:11.458Z,39.38
2019-05-16T08:53:12.761Z,33.75
2019-05-16T08:54:13.355Z,33.75
2019-05-16T08:55:12.333Z,33.75
2019-05-16T08:56:12.407Z,33.75
2019-05-16T08:58:13.547Z,39.38
2019-05-16T08:59:13.198Z,39.38
2019-05-16T09:00:14.618Z,39.38
2019-05-16T09:01:14.789Z,39.38
2019-05-16T09:02:12.462Z,33.75
2019-05-16T09:03:12.062Z,39.38
2019-05-16T09:04:11.685Z,39.38
2019-05-16T09:05:13.124Z,45.00
2019-05-16T09:06:11.819Z,45.00
2019-05-16T09:07:12.456Z,45.00
2019-05-16T09:08:08.366Z,39.38
2019-05-16T09:10:37.862Z,33.75
2019-05-16T09:10:42.915Z,39.38
2019-05-16T09:11:26.892Z,39.38
2019-05-16T09:12:09.393Z,45.00
2019-05-16T09:13:08.388Z,45.00
2019-05-16T09:14:08.402Z,45.00
2019-05-16T09:15:08.381Z,45.00
2019-05-16T09:16:08.371Z,45.00
2019-05-16T09:17:08.363Z,45.00
2019-05-16T09:18:08.398Z,45.00
2019-05-16T09:18:30.893Z,39.38
2019-05-16T09:19:08.362Z,45.00
2019-05-16T09:20:08.347Z,39.38
2019-05-16T09:21:08.337Z,39.38
2019-05-16T09:22:08.332Z,33.75
2019-05-16T09:23:08.329Z,28.12
2019-05-16T09:24:08.321Z,33.75
2019-05-16T09:25:08.425Z,45.00
2019-05-16T09:26:08.370Z,45.00
2019-05-16T09:27:12.389Z,39.38
2019-05-16T09:28:08.336Z,39.38
2019-05-16T09:29:08.786Z,45.00
2019-05-16T09:30:08.298Z,39.38
2019-05-16T09:31:08.291Z,39.38
2019-05-16T09:32:20.509Z,39.38
2019-05-16T09:33:09.264Z,33.75
2019-05-16T09:34:08.263Z,33.75
2019-05-16T09:35:08.523Z,28.12
2019-05-16T09:36:08.352Z,28.12
2019-05-16T09:37:08.669Z,33.75
2019-05-16T09:38:08.231Z,45.00
2019-05-16T09:39:08.585Z,28.12
2019-05-16T09:40:08.225Z,28.12
2019-05-16T09:41:08.446Z,39.38
2019-05-16T09:42:08.398Z,39.38
2019-05-16T09:43:08.209Z,39.38
2019-05-16T09:44:08.790Z,39.38
2019-05-16T09:45:08.177Z,39.38
2019-05-16T09:46:08.180Z,39.38
2019-05-16T09:47:08.165Z,39.38
2019-05-16T09:48:08.366Z,39.38
2019-05-16T09:49:18.934Z,39.38
2019-05-16T09:50:09.242Z,33.75
2019-05-16T09:51:08.132Z,33.75
2019-05-16T09:52:08.130Z,33.75
2019-05-16T09:53:08.132Z,33.75
2019-05-16T09:54:08.205Z,33.75
2019-05-16T09:55:08.128Z,33.75
2019-05-16T09:56:08.143Z,33.75
2019-05-16T09:57:08.215Z,33.75
2019-05-16T09:58:08.130Z,33.75
2019-05-16T09:59:08.112Z,33.75
2019-05-16T10:00:08.104Z,33.75
2019-05-16T10:01:08.095Z,33.75
2019-05-16T10:02:08.133Z,33.75
2019-05-16T10:03:08.083Z,33.75
2019-05-16T10:04:08.078Z,33.75
2019-05-16T10:05:13.252Z,33.75
2019-05-16T10:06:09.056Z,33.75
2019-05-16T10:07:08.044Z,33.75
2019-05-16T10:08:08.073Z,33.75
2019-05-16T10:09:08.031Z,33.75
2019-05-16T10:10:08.030Z,33.75
2019-05-16T10:11:08.022Z,33.75
2019-05-16T10:12:15.322Z,33.75
2019-05-16T10:13:09.008Z,28.12
2019-05-16T10:14:07.994Z,39.38
2019-05-16T10:15:07.990Z,39.38
2019-05-16T10:16:07.980Z,33.75
2019-05-16T10:17:08.195Z,39.38
2019-05-16T10:18:07.964Z,28.12
2019-05-16T10:19:07.956Z,39.38
2019-05-16T10:20:08.147Z,39.38
2019-05-16T10:21:08.313Z,39.38
2019-05-16T10:22:07.928Z,39.38
2019-05-16T10:23:14.329Z,39.38
2019-05-16T10:24:08.954Z,33.75
2019-05-16T10:25:07.916Z,33.75
2019-05-16T10:26:07.894Z,28.12
2019-05-16T10:27:07.889Z,28.12
2019-05-16T10:28:07.877Z,28.12
2019-05-16T10:29:10.888Z,28.12
2019-05-16T10:30:08.674Z,28.12
2019-05-16T10:31:07.854Z,28.12
2019-05-16T10:32:07.878Z,28.12
2019-05-16T10:33:07.860Z,28.12
2019-05-16T10:34:08.062Z,28.12
2019-05-16T10:35:07.821Z,28.12
2019-05-16T10:36:08.560Z,28.12
2019-05-16T10:37:07.808Z,28.12
2019-05-16T10:38:07.807Z,28.12
2019-05-16T10:39:07.906Z,28.12
2019-05-16T10:40:07.891Z,28.12
2019-05-16T10:41:07.776Z,28.12
2019-05-16T10:42:22.022Z,28.12
2019-05-16T10:43:08.770Z,28.12
2019-05-16T10:44:07.751Z,28.12
2019-05-16T10:45:08.703Z,22.50
2019-05-16T10:46:07.748Z,22.50
2019-05-16T10:47:07.794Z,22.50
2019-05-16T10:48:07.742Z,22.50
2019-05-16T10:49:07.729Z,22.50
2019-05-16T10:50:07.715Z,22.50
2019-05-16T10:51:07.985Z,22.50
2019-05-16T10:52:07.697Z,22.50
2019-05-16T10:53:23.753Z,22.50
2019-05-16T10:54:13.735Z,22.50
2019-05-16T10:55:08.752Z,22.50
2019-05-16T10:56:07.889Z,22.50
2019-05-16T10:57:08.280Z,22.50
2019-05-16T10:58:07.868Z,22.50
2019-05-16T10:59:46.707Z,22.50
2019-05-16T11:00:17.991Z,22.50
2019-05-16T11:01:23.025Z,22.50
2019-05-16T11:02:08.645Z,22.50
2019-05-16T11:03:07.638Z,22.50
2019-05-16T11:04:07.688Z,22.50
2019-05-16T11:06:17.546Z,22.50
2019-05-16T11:07:08.599Z,22.50
2019-05-16T11:08:08.406Z,22.50
2019-05-16T11:09:07.600Z,22.50
2019-05-16T11:10:07.578Z,22.50
2019-05-16T11:11:07.566Z,22.50
2019-05-16T11:12:07.556Z,22.50
2019-05-16T11:13:08.327Z,22.50
2019-05-16T11:14:09.292Z,22.50
2019-05-16T11:15:11.174Z,22.50
2019-05-16T11:16:09.476Z,22.50
2019-05-16T11:17:12.701Z,22.50
2019-05-16T11:18:08.581Z,22.50
2019-05-16T11:19:17.425Z,22.50
2019-05-16T11:20:08.537Z,22.50
2019-05-16T11:21:07.489Z,16.88
2019-05-16T11:22:07.482Z,22.50
2019-05-16T11:23:08.097Z,22.50
2019-05-16T11:24:12.925Z,22.50
2019-05-16T11:25:21.265Z,22.50
2019-05-16T11:26:08.450Z,22.50
2019-05-16T11:27:07.671Z,22.50
2019-05-16T11:28:07.539Z,16.88
2019-05-16T11:29:07.660Z,16.88
2019-05-16T11:30:07.660Z,16.88
2019-05-16T11:31:07.887Z,16.88
2019-05-16T11:32:07.452Z,16.88
2019-05-16T11:33:07.789Z,16.88
2019-05-16T11:34:07.436Z,16.88
2019-05-16T11:35:07.458Z,11.25
2019-05-16T11:36:09.037Z,11.25
2019-05-16T11:37:07.432Z,11.25
2019-05-16T11:38:07.499Z,11.25
2019-05-16T11:39:08.632Z,16.88
2019-05-16T11:40:07.394Z,11.25
2019-05-16T11:41:07.599Z,16.88
2019-05-16T11:42:08.067Z,16.88
2019-05-16T11:43:17.483Z,11.25
2019-05-16T11:44:08.352Z,11.25
2019-05-16T11:45:09.242Z,16.88
2019-05-16T11:46:07.343Z,16.88
2019-05-16T11:47:08.147Z,16.88
2019-05-16T11:48:07.327Z,16.88
2019-05-16T11:49:07.332Z,16.88
2019-05-16T11:50:07.529Z,16.88
2019-05-16T11:51:07.346Z,16.88
2019-05-16T11:52:07.628Z,16.88
2019-05-16T11:53:07.460Z,11.25
2019-05-16T11:54:07.313Z,11.25
2019-05-16T11:55:07.587Z,11.25
2019-05-16T11:56:08.334Z,16.88
2019-05-16T11:57:07.292Z,16.88
2019-05-16T11:58:07.259Z,11.25
2019-05-16T11:59:07.798Z,11.25
2019-05-16T12:00:07.929Z,11.25
2019-05-16T12:01:07.691Z,16.88
2019-05-16T12:02:07.240Z,11.25
2019-05-16T12:03:07.224Z,16.88
2019-05-16T12:04:07.961Z,11.25
2019-05-16T12:05:07.231Z,11.25
2019-05-16T12:06:10.738Z,11.25
2019-05-16T12:07:07.710Z,11.25
2019-05-16T12:08:07.940Z,11.25
2019-05-16T12:09:07.195Z,11.25
2019-05-16T12:10:07.681Z,11.25
2019-05-16T12:11:07.219Z,11.25
2019-05-16T12:12:08.806Z,11.25
2019-05-16T12:13:12.019Z,11.25
2019-05-16T12:14:08.184Z,11.25
2019-05-16T12:15:07.846Z,11.25
2019-05-16T12:16:07.729Z,11.25
2019-05-16T12:17:07.543Z,11.25
2019-05-16T12:18:08.477Z,11.25
2019-05-16T12:19:07.197Z,11.25
2019-05-16T12:20:08.005Z,11.25
2019-05-16T12:21:07.836Z,11.25
2019-05-16T12:22:07.227Z,11.25
2019-05-16T12:23:07.977Z,11.25
2019-05-16T12:24:07.539Z,11.25
2019-05-16T12:25:08.349Z,11.25
2019-05-16T12:26:07.739Z,11.25
2019-05-16T12:27:08.286Z,11.25
2019-05-16T12:28:08.168Z,16.88
2019-05-16T12:29:07.151Z,11.25
2019-05-16T12:30:12.844Z,11.25
2019-05-16T12:31:08.059Z,11.25
2019-05-16T12:32:07.791Z,11.25
2019-05-16T12:33:07.426Z,11.25
2019-05-16T12:34:09.559Z,11.25
2019-05-16T12:35:07.067Z,11.25
2019-05-16T12:36:07.525Z,11.25
2019-05-16T12:37:07.579Z,11.25
2019-05-16T12:38:08.038Z,11.25
2019-05-16T12:39:07.867Z,11.25
2019-05-16T12:40:06.998Z,11.25
2019-05-16T12:41:07.246Z,11.25
2019-05-16T12:42:08.431Z,11.25
2019-05-16T12:43:07.787Z,11.25
2019-05-16T12:44:07.590Z,11.25
2019-05-16T12:45:07.183Z,11.25
2019-05-16T12:46:07.689Z,11.25
2019-05-16T12:47:07.637Z,11.25
2019-05-16T12:48:07.055Z,11.25
2019-05-16T12:49:07.167Z,11.25
2019-05-16T12:50:07.318Z,11.25
2019-05-16T12:51:08.320Z,11.25
2019-05-16T12:52:07.010Z,11.25
2019-05-16T12:53:08.006Z,11.25
2019-05-16T12:54:07.526Z,16.88
2019-05-16T12:55:06.921Z,16.88
2019-05-16T12:56:06.913Z,11.25
2019-05-16T12:57:06.923Z,16.88
2019-05-16T12:58:14.698Z,16.88
2019-05-16T12:59:07.892Z,16.88
2019-05-16T13:00:07.378Z,16.88
2019-05-16T13:01:07.679Z,16.88
2019-05-16T13:02:07.593Z,11.25
2019-05-16T13:03:07.357Z,11.25
2019-05-16T13:04:06.858Z,16.88
2019-05-16T13:05:06.862Z,11.25
2019-05-16T13:06:06.844Z,11.25
2019-05-16T13:07:09.508Z,11.25